sensor_id;sensor_type;location;lat;lon;timestamp;pressure;altitude;pressure_sealevel;temperature
9985;BMP180;16737;50.932;6.780;2023-10-09T00:01:03;100807.00;;;22.20
9985;BMP180;16737;50.932;6.780;2023-10-09T00:03:32;100798.00;;;22.30
9985;BMP180;16737;50.932;6.780;2023-10-09T00:06:02;100801.00;;;22.30
9985;BMP180;16737;50.932;6.780;2023-10-09T00:08:30;100797.00;;;22.30
9985;BMP180;16737;50.932;6.780;2023-10-09T00:10:59;100809.00;;;22.30
9985;BMP180;16737;50.932;6.780;2023-10-09T00:13:39;100796.00;;;22.30
9985;BMP180;16737;50.932;6.780;2023-10-09T00:16:16;100797.00;;;22.30
9985;BMP180;16737;50.932;6.780;2023-10-09T00:18:49;100802.00;;;22.30
9985;BMP180;16737;50.932;6.780;2023-10-09T00:21:17;100798.00;;;22.30
9985;BMP180;16737;50.932;6.780;2023-10-09T00:23:47;100792.00;;;22.30
9985;BMP180;16737;50.932;6.780;2023-10-09T00:26:19;100755.00;;;22.30
9985;BMP180;16737;50.932;6.780;2023-10-09T00:28:47;100792.00;;;22.40
9985;BMP180;16737;50.932;6.780;2023-10-09T00:31:17;100800.00;;;22.40
9985;BMP180;16737;50.932;6.780;2023-10-09T00:33:54;100777.00;;;22.40
9985;BMP180;16737;50.932;6.780;2023-10-09T00:36:21;100781.00;;;22.40
9985;BMP180;16737;50.932;6.780;2023-10-09T00:38:54;100787.00;;;22.40
9985;BMP180;16737;50.932;6.780;2023-10-09T00:41:23;100783.00;;;22.40
9985;BMP180;16737;50.932;6.780;2023-10-09T00:43:54;100704.00;;;22.40
9985;BMP180;16737;50.932;6.780;2023-10-09T00:46:25;100777.00;;;22.30
9985;BMP180;16737;50.932;6.780;2023-10-09T00:48:57;100782.00;;;22.30
9985;BMP180;16737;50.932;6.780;2023-10-09T00:51:27;100785.00;;;22.30
9985;BMP180;16737;50.932;6.780;2023-10-09T00:54:04;100787.00;;;22.20
9985;BMP180;16737;50.932;6.780;2023-10-09T00:56:39;100790.00;;;22.10
9985;BMP180;16737;50.932;6.780;2023-10-09T00:59:13;100777.00;;;22.10
9985;BMP180;16737;50.932;6.780;2023-10-09T01:01:46;100749.00;;;22.10
9985;BMP180;16737;50.932;6.780;2023-10-09T01:04:24;100764.00;;;22.00
9985;BMP180;16737;50.932;6.780;2023-10-09T01:06:52;100766.00;;;21.90
9985;BMP180;16737;50.932;6.780;2023-10-09T01:09:31;100765.00;;;21.90
9985;BMP180;16737;50.932;6.780;2023-10-09T01:12:03;100701.00;;;21.80
9985;BMP180;16737;50.932;6.780;2023-10-09T01:14:31;100751.00;;;21.80
9985;BMP180;16737;50.932;6.780;2023-10-09T01:17:02;100757.00;;;21.70
9985;BMP180;16737;50.932;6.780;2023-10-09T01:19:35;100751.00;;;21.60
9985;BMP180;16737;50.932;6.780;2023-10-09T01:22:02;100751.00;;;21.60
9985;BMP180;16737;50.932;6.780;2023-10-09T01:24:31;100720.00;;;21.50
9985;BMP180;16737;50.932;6.780;2023-10-09T01:27:04;100744.00;;;21.50
9985;BMP180;16737;50.932;6.780;2023-10-09T01:29:41;100737.00;;;21.40
9985;BMP180;16737;50.932;6.780;2023-10-09T01:32:09;100742.00;;;21.40
9985;BMP180;16737;50.932;6.780;2023-10-09T01:34:42;100737.00;;;21.40
9985;BMP180;16737;50.932;6.780;2023-10-09T01:37:13;100723.00;;;21.40
9985;BMP180;16737;50.932;6.780;2023-10-09T01:39:46;100713.00;;;21.40
9985;BMP180;16737;50.932;6.780;2023-10-09T01:42:14;100710.00;;;21.40
9985;BMP180;16737;50.932;6.780;2023-10-09T01:44:50;100701.00;;;21.40
9985;BMP180;16737;50.932;6.780;2023-10-09T01:47:18;100663.00;;;21.40
9985;BMP180;16737;50.932;6.780;2023-10-09T01:49:47;100695.00;;;21.20
9985;BMP180;16737;50.932;6.780;2023-10-09T01:52:16;100709.00;;;21.40
9985;BMP180;16737;50.932;6.780;2023-10-09T01:54:46;100712.00;;;21.50
9985;BMP180;16737;50.932;6.780;2023-10-09T01:57:16;100653.00;;;21.50
9985;BMP180;16737;50.932;6.780;2023-10-09T01:59:49;100719.00;;;21.50
9985;BMP180;16737;50.932;6.780;2023-10-09T02:02:19;100726.00;;;21.50
9985;BMP180;16737;50.932;6.780;2023-10-09T02:04:53;100716.00;;;21.60
9985;BMP180;16737;50.932;6.780;2023-10-09T02:07:30;100708.00;;;21.60
9985;BMP180;16737;50.932;6.780;2023-10-09T02:10:08;100703.00;;;21.60
9985;BMP180;16737;50.932;6.780;2023-10-09T02:12:47;100711.00;;;21.70
9985;BMP180;16737;50.932;6.780;2023-10-09T02:15:17;100711.00;;;21.70
9985;BMP180;16737;50.932;6.780;2023-10-09T02:18:05;100707.00;;;21.80
9985;BMP180;16737;50.932;6.780;2023-10-09T02:20:42;100712.00;;;21.80
9985;BMP180;16737;50.932;6.780;2023-10-09T02:23:10;100717.00;;;21.80
9985;BMP180;16737;50.932;6.780;2023-10-09T02:25:40;100732.00;;;21.80
9985;BMP180;16737;50.932;6.780;2023-10-09T02:28:09;100680.00;;;21.80
9985;BMP180;16737;50.932;6.780;2023-10-09T02:30:43;100683.00;;;21.80
9985;BMP180;16737;50.932;6.780;2023-10-09T02:33:13;100731.00;;;21.80
9985;BMP180;16737;50.932;6.780;2023-10-09T02:35:44;100721.00;;;21.80
9985;BMP180;16737;50.932;6.780;2023-10-09T02:38:17;100727.00;;;21.80
9985;BMP180;16737;50.932;6.780;2023-10-09T02:40:50;100709.00;;;21.80
9985;BMP180;16737;50.932;6.780;2023-10-09T02:43:43;100716.00;;;21.80
9985;BMP180;16737;50.932;6.780;2023-10-09T02:46:13;100714.00;;;21.80
9985;BMP180;16737;50.932;6.780;2023-10-09T02:48:43;100698.00;;;21.80
9985;BMP180;16737;50.932;6.780;2023-10-09T02:51:17;100707.00;;;21.90
9985;BMP180;16737;50.932;6.780;2023-10-09T02:54:00;100707.00;;;21.90
9985;BMP180;16737;50.932;6.780;2023-10-09T02:56:35;100713.00;;;21.90
9985;BMP180;16737;50.932;6.780;2023-10-09T02:59:05;100713.00;;;21.90
9985;BMP180;16737;50.932;6.780;2023-10-09T03:01:33;100671.00;;;21.90
9985;BMP180;16737;50.932;6.780;2023-10-09T03:04:01;100711.00;;;21.80
9985;BMP180;16737;50.932;6.780;2023-10-09T03:06:28;100713.00;;;21.80
9985;BMP180;16737;50.932;6.780;2023-10-09T03:08:58;100708.00;;;21.70
9985;BMP180;16737;50.932;6.780;2023-10-09T03:11:26;100718.00;;;21.70
9985;BMP180;16737;50.932;6.780;2023-10-09T03:13:54;100718.00;;;21.60
9985;BMP180;16737;50.932;6.780;2023-10-09T03:16:21;100712.00;;;21.60
9985;BMP180;16737;50.932;6.780;2023-10-09T03:18:52;100708.00;;;21.50
9985;BMP180;16737;50.932;6.780;2023-10-09T03:21:20;100716.00;;;21.50
9985;BMP180;16737;50.932;6.780;2023-10-09T03:23:48;100718.00;;;21.40
9985;BMP180;16737;50.932;6.780;2023-10-09T03:26:16;100708.00;;;21.40
9985;BMP180;16737;50.932;6.780;2023-10-09T03:28:45;100699.00;;;21.40
9985;BMP180;16737;50.932;6.780;2023-10-09T03:31:13;100709.00;;;21.40
9985;BMP180;16737;50.932;6.780;2023-10-09T03:33:41;100720.00;;;21.40
9985;BMP180;16737;50.932;6.780;2023-10-09T03:36:08;100684.00;;;21.30
9985;BMP180;16737;50.932;6.780;2023-10-09T03:38:36;100711.00;;;21.30
9985;BMP180;16737;50.932;6.780;2023-10-09T03:41:05;100702.00;;;21.30
9985;BMP180;16737;50.932;6.780;2023-10-09T03:43:33;100696.00;;;21.30
9985;BMP180;16737;50.932;6.780;2023-10-09T03:46:04;100702.00;;;21.30
9985;BMP180;16737;50.932;6.780;2023-10-09T03:48:41;100694.00;;;21.20
9985;BMP180;16737;50.932;6.780;2023-10-09T03:51:12;100703.00;;;21.30
9985;BMP180;16737;50.932;6.780;2023-10-09T03:53:41;100705.00;;;21.20
9985;BMP180;16737;50.932;6.780;2023-10-09T03:56:09;100715.00;;;21.20
9985;BMP180;16737;50.932;6.780;2023-10-09T03:58:39;100702.00;;;21.20
9985;BMP180;16737;50.932;6.780;2023-10-09T04:01:09;100706.00;;;21.20
9985;BMP180;16737;50.932;6.780;2023-10-09T04:03:44;100689.00;;;21.20
9985;BMP180;16737;50.932;6.780;2023-10-09T04:06:11;100687.00;;;21.20
9985;BMP180;16737;50.932;6.780;2023-10-09T04:08:38;100692.00;;;21.20
9985;BMP180;16737;50.932;6.780;2023-10-09T04:11:17;100692.00;;;21.30
9985;BMP180;16737;50.932;6.780;2023-10-09T04:13:48;100683.00;;;21.30
9985;BMP180;16737;50.932;6.780;2023-10-09T04:16:18;100660.00;;;21.30
9985;BMP180;16737;50.932;6.780;2023-10-09T04:19:18;100683.00;;;21.30
9985;BMP180;16737;50.932;6.780;2023-10-09T04:21:50;100687.00;;;21.30
9985;BMP180;16737;50.932;6.780;2023-10-09T04:24:21;100685.00;;;21.30
9985;BMP180;16737;50.932;6.780;2023-10-09T04:26:51;100645.00;;;21.40
9985;BMP180;16737;50.932;6.780;2023-10-09T04:29:23;100687.00;;;21.30
9985;BMP180;16737;50.932;6.780;2023-10-09T04:31:54;100690.00;;;21.40
9985;BMP180;16737;50.932;6.780;2023-10-09T04:34:23;100694.00;;;21.40
9985;BMP180;16737;50.932;6.780;2023-10-09T04:37:00;100688.00;;;21.40
9985;BMP180;16737;50.932;6.780;2023-10-09T04:39:45;100691.00;;;21.40
9985;BMP180;16737;50.932;6.780;2023-10-09T04:42:26;100675.00;;;21.40
9985;BMP180;16737;50.932;6.780;2023-10-09T04:45:03;100664.00;;;21.20
9985;BMP180;16737;50.932;6.780;2023-10-09T04:47:51;100670.00;;;21.50
9985;BMP180;16737;50.932;6.780;2023-10-09T04:50:34;100666.00;;;21.50
9985;BMP180;16737;50.932;6.780;2023-10-09T04:53:13;100669.00;;;21.50
9985;BMP180;16737;50.932;6.780;2023-10-09T04:56:09;100675.00;;;21.60
9985;BMP180;16737;50.932;6.780;2023-10-09T04:58:41;100675.00;;;21.60
9985;BMP180;16737;50.932;6.780;2023-10-09T05:01:09;100677.00;;;21.60
9985;BMP180;16737;50.932;6.780;2023-10-09T05:03:42;100679.00;;;21.60
9985;BMP180;16737;50.932;6.780;2023-10-09T05:06:19;100682.00;;;21.70
9985;BMP180;16737;50.932;6.780;2023-10-09T05:09:04;100672.00;;;21.70
9985;BMP180;16737;50.932;6.780;2023-10-09T05:11:40;100681.00;;;21.70
9985;BMP180;16737;50.932;6.780;2023-10-09T05:14:20;100655.00;;;21.50
9985;BMP180;16737;50.932;6.780;2023-10-09T05:16:54;100638.00;;;21.80
9985;BMP180;16737;50.932;6.780;2023-10-09T05:19:21;100664.00;;;21.80
9985;BMP180;16737;50.932;6.780;2023-10-09T05:22:09;100664.00;;;21.80
9985;BMP180;16737;50.932;6.780;2023-10-09T05:24:56;100653.00;;;21.80
9985;BMP180;16737;50.932;6.780;2023-10-09T05:27:23;100659.00;;;21.80
9985;BMP180;16737;50.932;6.780;2023-10-09T05:30:17;100633.00;;;21.80
9985;BMP180;16737;50.932;6.780;2023-10-09T05:32:54;100653.00;;;21.80
9985;BMP180;16737;50.932;6.780;2023-10-09T05:35:24;100663.00;;;21.90
9985;BMP180;16737;50.932;6.780;2023-10-09T05:38:09;100661.00;;;21.90
9985;BMP180;16737;50.932;6.780;2023-10-09T05:40:50;100663.00;;;21.90
9985;BMP180;16737;50.932;6.780;2023-10-09T05:43:30;100652.00;;;21.90
9985;BMP180;16737;50.932;6.780;2023-10-09T05:46:14;100673.00;;;21.80
9985;BMP180;16737;50.932;6.780;2023-10-09T05:48:41;100657.00;;;21.80
9985;BMP180;16737;50.932;6.780;2023-10-09T05:51:35;100633.00;;;21.80
9985;BMP180;16737;50.932;6.780;2023-10-09T05:54:20;100671.00;;;21.80
9985;BMP180;16737;50.932;6.780;2023-10-09T05:57:09;100653.00;;;21.80
9985;BMP180;16737;50.932;6.780;2023-10-09T05:59:50;100667.00;;;21.80
9985;BMP180;16737;50.932;6.780;2023-10-09T06:02:35;100670.00;;;21.80
9985;BMP180;16737;50.932;6.780;2023-10-09T06:05:19;100660.00;;;21.90
9985;BMP180;16737;50.932;6.780;2023-10-09T06:08:00;100663.00;;;21.90
9985;BMP180;16737;50.932;6.780;2023-10-09T06:10:35;100649.00;;;21.90
9985;BMP180;16737;50.932;6.780;2023-10-09T06:13:08;100648.00;;;21.90
9985;BMP180;16737;50.932;6.780;2023-10-09T06:15:55;100594.00;;;21.90
9985;BMP180;16737;50.932;6.780;2023-10-09T06:18:46;100662.00;;;22.00
9985;BMP180;16737;50.932;6.780;2023-10-09T06:21:20;100668.00;;;22.00
9985;BMP180;16737;50.932;6.780;2023-10-09T06:24:07;100685.00;;;21.90
9985;BMP180;16737;50.932;6.780;2023-10-09T06:26:44;100703.00;;;22.00
9985;BMP180;16737;50.932;6.780;2023-10-09T06:29:39;100656.00;;;22.00
9985;BMP180;16737;50.932;6.780;2023-10-09T06:32:18;100709.00;;;22.00
9985;BMP180;16737;50.932;6.780;2023-10-09T06:35:04;100698.00;;;22.10
9985;BMP180;16737;50.932;6.780;2023-10-09T06:37:45;100692.00;;;22.10
9985;BMP180;16737;50.932;6.780;2023-10-09T06:40:30;100713.00;;;22.10
9985;BMP180;16737;50.932;6.780;2023-10-09T06:43:23;100701.00;;;22.10
9985;BMP180;16737;50.932;6.780;2023-10-09T06:45:55;100717.00;;;22.20
9985;BMP180;16737;50.932;6.780;2023-10-09T06:48:24;100733.00;;;22.20
9985;BMP180;16737;50.932;6.780;2023-10-09T06:51:11;100712.00;;;22.20
9985;BMP180;16737;50.932;6.780;2023-10-09T06:53:41;100724.00;;;22.20
9985;BMP180;16737;50.932;6.780;2023-10-09T06:56:31;100710.00;;;22.20
9985;BMP180;16737;50.932;6.780;2023-10-09T06:59:13;100759.00;;;22.20
9985;BMP180;16737;50.932;6.780;2023-10-09T07:01:47;100754.00;;;22.20
9985;BMP180;16737;50.932;6.780;2023-10-09T07:04:37;100727.00;;;22.20
9985;BMP180;16737;50.932;6.780;2023-10-09T07:07:12;100771.00;;;22.20
9985;BMP180;16737;50.932;6.780;2023-10-09T07:09:42;100760.00;;;22.30
9985;BMP180;16737;50.932;6.780;2023-10-09T07:12:29;100767.00;;;22.30
9985;BMP180;16737;50.932;6.780;2023-10-09T07:15:00;100770.00;;;22.30
9985;BMP180;16737;50.932;6.780;2023-10-09T07:18:00;100773.00;;;22.30
9985;BMP180;16737;50.932;6.780;2023-10-09T07:20:44;100749.00;;;22.30
9985;BMP180;16737;50.932;6.780;2023-10-09T07:23:25;100775.00;;;22.30
9985;BMP180;16737;50.932;6.780;2023-10-09T07:26:04;100772.00;;;22.30
9985;BMP180;16737;50.932;6.780;2023-10-09T07:28:46;100784.00;;;22.40
9985;BMP180;16737;50.932;6.780;2023-10-09T07:31:20;100778.00;;;22.40
9985;BMP180;16737;50.932;6.780;2023-10-09T07:34:05;100777.00;;;22.50
9985;BMP180;16737;50.932;6.780;2023-10-09T07:36:53;100770.00;;;22.50
9985;BMP180;16737;50.932;6.780;2023-10-09T07:39:22;100770.00;;;22.60
9985;BMP180;16737;50.932;6.780;2023-10-09T07:41:50;100774.00;;;22.60
9985;BMP180;16737;50.932;6.780;2023-10-09T07:44:27;100762.00;;;22.70
9985;BMP180;16737;50.932;6.780;2023-10-09T07:47:05;100775.00;;;22.70
9985;BMP180;16737;50.932;6.780;2023-10-09T07:49:45;100774.00;;;22.80
9985;BMP180;16737;50.932;6.780;2023-10-09T07:52:24;100789.00;;;22.80
9985;BMP180;16737;50.932;6.780;2023-10-09T07:54:52;100792.00;;;22.80
9985;BMP180;16737;50.932;6.780;2023-10-09T07:57:27;100796.00;;;22.80
9985;BMP180;16737;50.932;6.780;2023-10-09T08:00:05;100770.00;;;22.80
9985;BMP180;16737;50.932;6.780;2023-10-09T08:03:00;100805.00;;;22.80
9985;BMP180;16737;50.932;6.780;2023-10-09T08:05:35;100786.00;;;22.90
9985;BMP180;16737;50.932;6.780;2023-10-09T08:08:10;100784.00;;;22.80
9985;BMP180;16737;50.932;6.780;2023-10-09T08:11:07;100797.00;;;22.90
9985;BMP180;16737;50.932;6.780;2023-10-09T08:14:00;100784.00;;;22.90
9985;BMP180;16737;50.932;6.780;2023-10-09T08:16:28;100793.00;;;22.90
9985;BMP180;16737;50.932;6.780;2023-10-09T08:19:03;100771.00;;;22.90
9985;BMP180;16737;50.932;6.780;2023-10-09T08:21:54;100779.00;;;22.90
9985;BMP180;16737;50.932;6.780;2023-10-09T08:24:43;100776.00;;;22.90
9985;BMP180;16737;50.932;6.780;2023-10-09T08:27:21;100761.00;;;22.80
9985;BMP180;16737;50.932;6.780;2023-10-09T08:30:12;100772.00;;;22.80
9985;BMP180;16737;50.932;6.780;2023-10-09T08:32:54;100763.00;;;22.80
9985;BMP180;16737;50.932;6.780;2023-10-09T08:35:30;100769.00;;;22.80
9985;BMP180;16737;50.932;6.780;2023-10-09T08:37:58;100772.00;;;22.80
9985;BMP180;16737;50.932;6.780;2023-10-09T08:40:32;100774.00;;;22.80
9985;BMP180;16737;50.932;6.780;2023-10-09T08:43:09;100738.00;;;22.80
9985;BMP180;16737;50.932;6.780;2023-10-09T08:45:39;100713.00;;;22.80
9985;BMP180;16737;50.932;6.780;2023-10-09T08:48:07;100797.00;;;22.80
9985;BMP180;16737;50.932;6.780;2023-10-09T08:50:42;100797.00;;;22.80
9985;BMP180;16737;50.932;6.780;2023-10-09T08:53:10;100796.00;;;22.80
9985;BMP180;16737;50.932;6.780;2023-10-09T08:55:38;100800.00;;;22.80
9985;BMP180;16737;50.932;6.780;2023-10-09T08:58:08;100796.00;;;22.80
9985;BMP180;16737;50.932;6.780;2023-10-09T09:00:45;100746.00;;;22.80
9985;BMP180;16737;50.932;6.780;2023-10-09T09:03:14;100809.00;;;22.80
9985;BMP180;16737;50.932;6.780;2023-10-09T09:05:46;100773.00;;;22.80
9985;BMP180;16737;50.932;6.780;2023-10-09T09:08:22;100780.00;;;22.80
9985;BMP180;16737;50.932;6.780;2023-10-09T09:10:58;100781.00;;;22.80
9985;BMP180;16737;50.932;6.780;2023-10-09T09:13:41;100728.00;;;22.90
9985;BMP180;16737;50.932;6.780;2023-10-09T09:16:15;100750.00;;;22.90
9985;BMP180;16737;50.932;6.780;2023-10-09T09:18:58;100727.00;;;23.00
9985;BMP180;16737;50.932;6.780;2023-10-09T09:21:33;100736.00;;;23.10
9985;BMP180;16737;50.932;6.780;2023-10-09T09:24:05;100741.00;;;23.10
9985;BMP180;16737;50.932;6.780;2023-10-09T09:26:43;100747.00;;;23.20
9985;BMP180;16737;50.932;6.780;2023-10-09T09:29:14;100743.00;;;23.20
9985;BMP180;16737;50.932;6.780;2023-10-09T09:31:53;100709.00;;;23.30
9985;BMP180;16737;50.932;6.780;2023-10-09T09:34:20;100759.00;;;23.40
9985;BMP180;16737;50.932;6.780;2023-10-09T09:36:56;100736.00;;;23.40
9985;BMP180;16737;50.932;6.780;2023-10-09T09:39:25;100737.00;;;23.50
9985;BMP180;16737;50.932;6.780;2023-10-09T09:41:57;100720.00;;;23.60
9985;BMP180;16737;50.932;6.780;2023-10-09T09:44:33;100705.00;;;23.70
9985;BMP180;16737;50.932;6.780;2023-10-09T09:47:09;100713.00;;;23.80
9985;BMP180;16737;50.932;6.780;2023-10-09T09:49:42;100716.00;;;23.80
9985;BMP180;16737;50.932;6.780;2023-10-09T09:52:10;100715.00;;;23.90
9985;BMP180;16737;50.932;6.780;2023-10-09T09:54:38;100708.00;;;23.90
9985;BMP180;16737;50.932;6.780;2023-10-09T09:57:07;100696.00;;;24.00
9985;BMP180;16737;50.932;6.780;2023-10-09T09:59:39;100700.00;;;24.10
9985;BMP180;16737;50.932;6.780;2023-10-09T10:02:21;100698.00;;;24.10
9985;BMP180;16737;50.932;6.780;2023-10-09T10:04:55;100702.00;;;24.20
9985;BMP180;16737;50.932;6.780;2023-10-09T10:07:26;100705.00;;;24.20
9985;BMP180;16737;50.932;6.780;2023-10-09T10:09:55;100711.00;;;24.30
9985;BMP180;16737;50.932;6.780;2023-10-09T10:13:00;100704.00;;;24.30
9985;BMP180;16737;50.932;6.780;2023-10-09T10:16:07;100689.00;;;24.40
9985;BMP180;16737;50.932;6.780;2023-10-09T10:18:55;100684.00;;;24.50
9985;BMP180;16737;50.932;6.780;2023-10-09T10:21:48;100665.00;;;24.60
9985;BMP180;16737;50.932;6.780;2023-10-09T10:24:42;100678.00;;;24.70
9985;BMP180;16737;50.932;6.780;2023-10-09T10:27:25;100635.00;;;24.80
9985;BMP180;16737;50.932;6.780;2023-10-09T10:30:27;100682.00;;;24.80
9985;BMP180;16737;50.932;6.780;2023-10-09T10:33:00;100690.00;;;24.90
9985;BMP180;16737;50.932;6.780;2023-10-09T10:35:36;100700.00;;;25.00
9985;BMP180;16737;50.932;6.780;2023-10-09T10:38:33;100697.00;;;25.10
9985;BMP180;16737;50.932;6.780;2023-10-09T10:41:17;100687.00;;;25.10
9985;BMP180;16737;50.932;6.780;2023-10-09T10:43:48;100696.00;;;25.20
9985;BMP180;16737;50.932;6.780;2023-10-09T10:46:22;100721.00;;;25.30
9985;BMP180;16737;50.932;6.780;2023-10-09T10:49:05;100708.00;;;25.30
9985;BMP180;16737;50.932;6.780;2023-10-09T10:51:42;100720.00;;;25.40
9985;BMP180;16737;50.932;6.780;2023-10-09T10:54:22;100735.00;;;25.40
9985;BMP180;16737;50.932;6.780;2023-10-09T10:57:21;100730.00;;;25.50
9985;BMP180;16737;50.932;6.780;2023-10-09T11:00:17;100723.00;;;25.60
9985;BMP180;16737;50.932;6.780;2023-10-09T11:02:58;100730.00;;;25.60
9985;BMP180;16737;50.932;6.780;2023-10-09T11:05:42;100731.00;;;25.60
9985;BMP180;16737;50.932;6.780;2023-10-09T11:08:12;100733.00;;;25.70
9985;BMP180;16737;50.932;6.780;2023-10-09T11:10:40;100736.00;;;25.80
9985;BMP180;16737;50.932;6.780;2023-10-09T11:13:24;100744.00;;;25.80
9985;BMP180;16737;50.932;6.780;2023-10-09T11:16:01;100693.00;;;25.90
9985;BMP180;16737;50.932;6.780;2023-10-09T11:18:49;100744.00;;;25.90
9985;BMP180;16737;50.932;6.780;2023-10-09T11:21:17;100742.00;;;26.00
9985;BMP180;16737;50.932;6.780;2023-10-09T11:23:58;100750.00;;;26.00
9985;BMP180;16737;50.932;6.780;2023-10-09T11:26:25;100707.00;;;26.00
9985;BMP180;16737;50.932;6.780;2023-10-09T11:29:09;100738.00;;;26.00
9985;BMP180;16737;50.932;6.780;2023-10-09T11:31:57;100743.00;;;26.10
9985;BMP180;16737;50.932;6.780;2023-10-09T11:34:26;100729.00;;;26.10
9985;BMP180;16737;50.932;6.780;2023-10-09T11:36:57;100691.00;;;26.20
9985;BMP180;16737;50.932;6.780;2023-10-09T11:39:28;100741.00;;;26.20
9985;BMP180;16737;50.932;6.780;2023-10-09T11:42:06;100739.00;;;26.20
9985;BMP180;16737;50.932;6.780;2023-10-09T11:44:41;100743.00;;;26.20
9985;BMP180;16737;50.932;6.780;2023-10-09T11:47:12;100742.00;;;26.30
9985;BMP180;16737;50.932;6.780;2023-10-09T11:49:56;100738.00;;;26.40
9985;BMP180;16737;50.932;6.780;2023-10-09T11:52:56;100731.00;;;26.30
9985;BMP180;16737;50.932;6.780;2023-10-09T11:55:35;100735.00;;;26.40
9985;BMP180;16737;50.932;6.780;2023-10-09T11:58:04;100735.00;;;26.40
9985;BMP180;16737;50.932;6.780;2023-10-09T12:00:34;100731.00;;;26.40
9985;BMP180;16737;50.932;6.780;2023-10-09T12:03:11;100726.00;;;26.40
9985;BMP180;16737;50.932;6.780;2023-10-09T12:05:40;100724.00;;;26.40
9985;BMP180;16737;50.932;6.780;2023-10-09T12:08:12;100728.00;;;26.40
9985;BMP180;16737;50.932;6.780;2023-10-09T12:10:41;100720.00;;;26.50
9985;BMP180;16737;50.932;6.780;2023-10-09T12:13:08;100725.00;;;26.50
9985;BMP180;16737;50.932;6.780;2023-10-09T12:15:38;100722.00;;;26.50
9985;BMP180;16737;50.932;6.780;2023-10-09T12:18:06;100739.00;;;26.50
9985;BMP180;16737;50.932;6.780;2023-10-09T12:20:41;100734.00;;;26.50
9985;BMP180;16737;50.932;6.780;2023-10-09T12:23:13;100737.00;;;26.50
9985;BMP180;16737;50.932;6.780;2023-10-09T12:25:40;100732.00;;;26.50
9985;BMP180;16737;50.932;6.780;2023-10-09T12:28:11;100738.00;;;26.50
9985;BMP180;16737;50.932;6.780;2023-10-09T12:30:41;100743.00;;;26.50
9985;BMP180;16737;50.932;6.780;2023-10-09T12:33:08;100717.00;;;26.50
9985;BMP180;16737;50.932;6.780;2023-10-09T12:35:39;100741.00;;;26.40
9985;BMP180;16737;50.932;6.780;2023-10-09T12:38:07;100734.00;;;26.40
9985;BMP180;16737;50.932;6.780;2023-10-09T12:40:38;100730.00;;;26.40
9985;BMP180;16737;50.932;6.780;2023-10-09T12:43:07;100722.00;;;26.40
9985;BMP180;16737;50.932;6.780;2023-10-09T12:45:42;100717.00;;;26.40
9985;BMP180;16737;50.932;6.780;2023-10-09T12:48:10;100714.00;;;26.40
9985;BMP180;16737;50.932;6.780;2023-10-09T12:50:38;100713.00;;;26.40
9985;BMP180;16737;50.932;6.780;2023-10-09T12:53:10;100722.00;;;26.40
9985;BMP180;16737;50.932;6.780;2023-10-09T12:55:40;100709.00;;;26.40
9985;BMP180;16737;50.932;6.780;2023-10-09T12:58:09;100722.00;;;26.40
9985;BMP180;16737;50.932;6.780;2023-10-09T13:00:42;100724.00;;;26.40
9985;BMP180;16737;50.932;6.780;2023-10-09T13:03:15;100724.00;;;26.40
9985;BMP180;16737;50.932;6.780;2023-10-09T13:05:50;100691.00;;;26.40
9985;BMP180;16737;50.932;6.780;2023-10-09T13:08:22;100717.00;;;26.40
9985;BMP180;16737;50.932;6.780;2023-10-09T13:10:50;100701.00;;;26.40
9985;BMP180;16737;50.932;6.780;2023-10-09T13:13:27;100716.00;;;26.40
9985;BMP180;16737;50.932;6.780;2023-10-09T13:16:07;100715.00;;;26.30
9985;BMP180;16737;50.932;6.780;2023-10-09T13:18:38;100720.00;;;26.30
9985;BMP180;16737;50.932;6.780;2023-10-09T13:21:05;100729.00;;;26.30
9985;BMP180;16737;50.932;6.780;2023-10-09T13:23:32;100726.00;;;26.30
9985;BMP180;16737;50.932;6.780;2023-10-09T13:26:08;100694.00;;;26.30
9985;BMP180;16737;50.932;6.780;2023-10-09T13:28:49;100724.00;;;26.20
9985;BMP180;16737;50.932;6.780;2023-10-09T13:31:18;100719.00;;;26.20
9985;BMP180;16737;50.932;6.780;2023-10-09T13:33:47;100721.00;;;26.20
9985;BMP180;16737;50.932;6.780;2023-10-09T13:36:15;100722.00;;;26.20
9985;BMP180;16737;50.932;6.780;2023-10-09T13:38:53;100723.00;;;26.20
9985;BMP180;16737;50.932;6.780;2023-10-09T13:41:20;100733.00;;;26.10
9985;BMP180;16737;50.932;6.780;2023-10-09T13:43:48;100722.00;;;26.20
9985;BMP180;16737;50.932;6.780;2023-10-09T13:46:18;100723.00;;;26.20
9985;BMP180;16737;50.932;6.780;2023-10-09T13:48:45;100727.00;;;26.20
9985;BMP180;16737;50.932;6.780;2023-10-09T13:51:15;100726.00;;;26.20
9985;BMP180;16737;50.932;6.780;2023-10-09T13:53:44;100724.00;;;26.20
9985;BMP180;16737;50.932;6.780;2023-10-09T13:56:15;100730.00;;;26.10
9985;BMP180;16737;50.932;6.780;2023-10-09T13:58:46;100724.00;;;26.10
9985;BMP180;16737;50.932;6.780;2023-10-09T14:01:13;100718.00;;;26.10
9985;BMP180;16737;50.932;6.780;2023-10-09T14:03:54;100715.00;;;26.10
9985;BMP180;16737;50.932;6.780;2023-10-09T14:06:22;100736.00;;;26.10
9985;BMP180;16737;50.932;6.780;2023-10-09T14:08:58;100728.00;;;26.20
9985;BMP180;16737;50.932;6.780;2023-10-09T14:11:25;100724.00;;;26.20
9985;BMP180;16737;50.932;6.780;2023-10-09T14:13:53;100714.00;;;26.20
9985;BMP180;16737;50.932;6.780;2023-10-09T14:16:20;100716.00;;;26.20
9985;BMP180;16737;50.932;6.780;2023-10-09T14:18:56;100736.00;;;26.20
9985;BMP180;16737;50.932;6.780;2023-10-09T14:21:27;100723.00;;;26.10
9985;BMP180;16737;50.932;6.780;2023-10-09T14:23:56;100721.00;;;26.10
9985;BMP180;16737;50.932;6.780;2023-10-09T14:26:25;100728.00;;;26.10
9985;BMP180;16737;50.932;6.780;2023-10-09T14:28:52;100739.00;;;26.20
9985;BMP180;16737;50.932;6.780;2023-10-09T14:31:23;100743.00;;;26.20
9985;BMP180;16737;50.932;6.780;2023-10-09T14:33:56;100730.00;;;26.10
9985;BMP180;16737;50.932;6.780;2023-10-09T14:36:23;100749.00;;;26.10
9985;BMP180;16737;50.932;6.780;2023-10-09T14:38:59;100744.00;;;26.10
9985;BMP180;16737;50.932;6.780;2023-10-09T14:41:27;100732.00;;;26.10
9985;BMP180;16737;50.932;6.780;2023-10-09T14:43:59;100746.00;;;26.10
9985;BMP180;16737;50.932;6.780;2023-10-09T14:46:26;100735.00;;;26.10
9985;BMP180;16737;50.932;6.780;2023-10-09T14:48:55;100739.00;;;26.10
9985;BMP180;16737;50.932;6.780;2023-10-09T14:51:23;100752.00;;;26.10
9985;BMP180;16737;50.932;6.780;2023-10-09T14:53:54;100738.00;;;26.10